sensor_id;sensor_type;location;lat;lon;timestamp;temperature;humidity
17849;DHT22;9050;48.746;9.232;2023-02-05T00:01:23;2.90;99.90
17849;DHT22;9050;48.746;9.232;2023-02-05T00:03:50;2.90;99.90
17849;DHT22;9050;48.746;9.232;2023-02-05T00:06:16;2.90;99.90
17849;DHT22;9050;48.746;9.232;2023-02-05T00:08:43;2.90;99.90
17849;DHT22;9050;48.746;9.232;2023-02-05T00:11:12;2.90;99.90
17849;DHT22;9050;48.746;9.232;2023-02-05T00:13:40;2.90;99.90
17849;DHT22;9050;48.746;9.232;2023-02-05T00:16:08;2.90;99.90
17849;DHT22;9050;48.746;9.232;2023-02-05T00:18:35;3.00;99.90
17849;DHT22;9050;48.746;9.232;2023-02-05T00:21:03;3.10;99.90
17849;DHT22;9050;48.746;9.232;2023-02-05T00:23:30;3.00;99.90
17849;DHT22;9050;48.746;9.232;2023-02-05T00:25:57;3.00;99.90
17849;DHT22;9050;48.746;9.232;2023-02-05T00:28:26;3.00;99.90
17849;DHT22;9050;48.746;9.232;2023-02-05T00:30:52;3.00;99.90
17849;DHT22;9050;48.746;9.232;2023-02-05T00:33:19;3.00;99.90
17849;DHT22;9050;48.746;9.232;2023-02-05T00:35:46;2.90;99.90
17849;DHT22;9050;48.746;9.232;2023-02-05T00:38:13;2.90;99.90
17849;DHT22;9050;48.746;9.232;2023-02-05T00:40:40;2.80;99.90
17849;DHT22;9050;48.746;9.232;2023-02-05T00:43:07;2.80;99.90
17849;DHT22;9050;48.746;9.232;2023-02-05T00:45:35;2.80;99.90
17849;DHT22;9050;48.746;9.232;2023-02-05T00:48:03;2.80;99.90
17849;DHT22;9050;48.746;9.232;2023-02-05T00:50:31;2.90;99.90
17849;DHT22;9050;48.746;9.232;2023-02-05T00:52:58;2.90;99.90
17849;DHT22;9050;48.746;9.232;2023-02-05T00:55:35;2.90;99.90
17849;DHT22;9050;48.746;9.232;2023-02-05T00:58:02;2.80;99.90
17849;DHT22;9050;48.746;9.232;2023-02-05T01:00:29;2.80;99.90
17849;DHT22;9050;48.746;9.232;2023-02-05T01:02:59;2.80;99.90
17849;DHT22;9050;48.746;9.232;2023-02-05T01:05:26;2.70;99.90
17849;DHT22;9050;48.746;9.232;2023-02-05T01:07:55;2.80;99.90
17849;DHT22;9050;48.746;9.232;2023-02-05T01:10:22;2.80;99.90
17849;DHT22;9050;48.746;9.232;2023-02-05T01:12:49;2.80;99.90
17849;DHT22;9050;48.746;9.232;2023-02-05T01:15:16;2.70;99.90
17849;DHT22;9050;48.746;9.232;2023-02-05T01:17:43;2.70;99.90
17849;DHT22;9050;48.746;9.232;2023-02-05T01:20:13;2.70;99.90
17849;DHT22;9050;48.746;9.232;2023-02-05T01:22:41;2.70;99.90
17849;DHT22;9050;48.746;9.232;2023-02-05T01:25:08;2.60;99.90
17849;DHT22;9050;48.746;9.232;2023-02-05T01:27:36;2.60;99.90
17849;DHT22;9050;48.746;9.232;2023-02-05T01:30:04;2.50;99.90
17849;DHT22;9050;48.746;9.232;2023-02-05T01:32:31;2.50;99.90
17849;DHT22;9050;48.746;9.232;2023-02-05T01:34:58;2.50;99.90
17849;DHT22;9050;48.746;9.232;2023-02-05T01:37:26;2.40;99.90
17849;DHT22;9050;48.746;9.232;2023-02-05T01:39:53;2.40;99.90
17849;DHT22;9050;48.746;9.232;2023-02-05T01:42:22;2.40;99.90
17849;DHT22;9050;48.746;9.232;2023-02-05T01:47:55;2.30;99.90
17849;DHT22;9050;48.746;9.232;2023-02-05T01:50:25;2.30;99.90
17849;DHT22;9050;48.746;9.232;2023-02-05T01:52:57;2.30;99.90
17849;DHT22;9050;48.746;9.232;2023-02-05T01:55:26;2.20;99.90
17849;DHT22;9050;48.746;9.232;2023-02-05T01:57:54;2.20;99.90
17849;DHT22;9050;48.746;9.232;2023-02-05T02:00:22;2.10;99.90
17849;DHT22;9050;48.746;9.232;2023-02-05T02:02:49;2.00;99.90
17849;DHT22;9050;48.746;9.232;2023-02-05T02:05:16;2.00;99.90
17849;DHT22;9050;48.746;9.232;2023-02-05T02:07:44;1.90;99.90
17849;DHT22;9050;48.746;9.232;2023-02-05T02:10:14;1.90;99.90
17849;DHT22;9050;48.746;9.232;2023-02-05T02:12:44;1.90;99.90
17849;DHT22;9050;48.746;9.232;2023-02-05T02:15:15;1.90;99.90
17849;DHT22;9050;48.746;9.232;2023-02-05T02:17:45;1.90;99.90
17849;DHT22;9050;48.746;9.232;2023-02-05T02:20:16;1.90;99.90
17849;DHT22;9050;48.746;9.232;2023-02-05T02:23:02;2.00;99.90
17849;DHT22;9050;48.746;9.232;2023-02-05T02:26:16;2.00;99.90
17849;DHT22;9050;48.746;9.232;2023-02-05T02:28:50;2.00;99.90
17849;DHT22;9050;48.746;9.232;2023-02-05T02:31:24;2.00;99.90
17849;DHT22;9050;48.746;9.232;2023-02-05T02:33:56;2.00;99.90
17849;DHT22;9050;48.746;9.232;2023-02-05T02:36:29;2.00;99.90
17849;DHT22;9050;48.746;9.232;2023-02-05T02:39:02;2.00;99.90
17849;DHT22;9050;48.746;9.232;2023-02-05T02:41:41;1.90;99.90
17849;DHT22;9050;48.746;9.232;2023-02-05T02:44:14;1.90;99.90
17849;DHT22;9050;48.746;9.232;2023-02-05T02:46:46;1.90;99.90
17849;DHT22;9050;48.746;9.232;2023-02-05T02:49:22;2.00;99.90
17849;DHT22;9050;48.746;9.232;2023-02-05T02:51:50;2.10;99.90
17849;DHT22;9050;48.746;9.232;2023-02-05T02:54:20;2.10;99.90
17849;DHT22;9050;48.746;9.232;2023-02-05T02:56:48;2.20;99.90
17849;DHT22;9050;48.746;9.232;2023-02-05T02:59:19;2.20;99.90
17849;DHT22;9050;48.746;9.232;2023-02-05T03:01:50;2.20;99.90
17849;DHT22;9050;48.746;9.232;2023-02-05T03:04:25;2.30;99.90
17849;DHT22;9050;48.746;9.232;2023-02-05T03:06:56;2.20;99.90
17849;DHT22;9050;48.746;9.232;2023-02-05T03:09:31;2.20;99.90
17849;DHT22;9050;48.746;9.232;2023-02-05T03:12:00;2.30;99.90
17849;DHT22;9050;48.746;9.232;2023-02-05T03:14:29;2.30;99.90
17849;DHT22;9050;48.746;9.232;2023-02-05T03:16:56;2.30;99.90
17849;DHT22;9050;48.746;9.232;2023-02-05T03:19:23;2.30;99.90
17849;DHT22;9050;48.746;9.232;2023-02-05T03:21:55;2.30;99.90
17849;DHT22;9050;48.746;9.232;2023-02-05T03:24:23;2.30;99.90
17849;DHT22;9050;48.746;9.232;2023-02-05T03:26:50;2.30;99.90
17849;DHT22;9050;48.746;9.232;2023-02-05T03:29:20;2.30;99.90
17849;DHT22;9050;48.746;9.232;2023-02-05T03:31:57;2.30;99.90
17849;DHT22;9050;48.746;9.232;2023-02-05T03:34:36;2.30;99.90
17849;DHT22;9050;48.746;9.232;2023-02-05T03:37:10;2.40;99.90
17849;DHT22;9050;48.746;9.232;2023-02-05T03:39:47;2.40;99.90
17849;DHT22;9050;48.746;9.232;2023-02-05T03:42:27;2.40;99.90
17849;DHT22;9050;48.746;9.232;2023-02-05T03:48:12;2.40;99.90
17849;DHT22;9050;48.746;9.232;2023-02-05T03:50:48;2.40;99.90
17849;DHT22;9050;48.746;9.232;2023-02-05T03:53:20;2.30;99.90
17849;DHT22;9050;48.746;9.232;2023-02-05T03:55:51;2.30;99.90
17849;DHT22;9050;48.746;9.232;2023-02-05T03:58:24;2.20;99.90
17849;DHT22;9050;48.746;9.232;2023-02-05T04:00:52;2.30;99.90
17849;DHT22;9050;48.746;9.232;2023-02-05T04:03:21;2.20;99.90
17849;DHT22;9050;48.746;9.232;2023-02-05T04:05:48;2.20;99.90
17849;DHT22;9050;48.746;9.232;2023-02-05T04:08:15;2.10;99.90
17849;DHT22;9050;48.746;9.232;2023-02-05T04:10:42;2.10;99.90
17849;DHT22;9050;48.746;9.232;2023-02-05T04:13:09;2.00;99.90
17849;DHT22;9050;48.746;9.232;2023-02-05T04:15:35;2.00;99.90
17849;DHT22;9050;48.746;9.232;2023-02-05T04:18:02;2.00;99.90
17849;DHT22;9050;48.746;9.232;2023-02-05T04:20:31;2.00;99.90
17849;DHT22;9050;48.746;9.232;2023-02-05T04:22:57;1.90;99.90
17849;DHT22;9050;48.746;9.232;2023-02-05T04:25:24;2.00;99.90
17849;DHT22;9050;48.746;9.232;2023-02-05T04:27:53;2.00;99.90
17849;DHT22;9050;48.746;9.232;2023-02-05T04:30:19;1.90;99.90
17849;DHT22;9050;48.746;9.232;2023-02-05T04:32:46;1.90;99.90
17849;DHT22;9050;48.746;9.232;2023-02-05T04:35:13;1.80;99.90
17849;DHT22;9050;48.746;9.232;2023-02-05T04:37:44;1.80;99.90
17849;DHT22;9050;48.746;9.232;2023-02-05T04:40:11;1.80;99.90
17849;DHT22;9050;48.746;9.232;2023-02-05T04:42:38;1.70;99.90
17849;DHT22;9050;48.746;9.232;2023-02-05T04:45:05;1.70;99.90
17849;DHT22;9050;48.746;9.232;2023-02-05T04:47:35;1.70;99.90
17849;DHT22;9050;48.746;9.232;2023-02-05T04:50:03;1.60;99.90
17849;DHT22;9050;48.746;9.232;2023-02-05T04:52:30;1.60;99.90
17849;DHT22;9050;48.746;9.232;2023-02-05T04:54:58;1.50;99.90
17849;DHT22;9050;48.746;9.232;2023-02-05T04:57:25;1.50;99.90
17849;DHT22;9050;48.746;9.232;2023-02-05T04:59:52;1.50;99.90
17849;DHT22;9050;48.746;9.232;2023-02-05T05:02:18;1.50;99.90
17849;DHT22;9050;48.746;9.232;2023-02-05T05:04:45;1.50;99.90
17849;DHT22;9050;48.746;9.232;2023-02-05T05:07:12;1.40;99.90
17849;DHT22;9050;48.746;9.232;2023-02-05T05:09:41;1.50;99.90
17849;DHT22;9050;48.746;9.232;2023-02-05T05:12:09;1.40;99.90
17849;DHT22;9050;48.746;9.232;2023-02-05T05:14:36;1.40;99.90
17849;DHT22;9050;48.746;9.232;2023-02-05T05:17:03;1.40;99.90
17849;DHT22;9050;48.746;9.232;2023-02-05T05:19:30;1.40;99.90
17849;DHT22;9050;48.746;9.232;2023-02-05T05:24:31;1.40;99.90
17849;DHT22;9050;48.746;9.232;2023-02-05T05:26:58;1.50;99.90
17849;DHT22;9050;48.746;9.232;2023-02-05T05:29:27;1.50;99.90
17849;DHT22;9050;48.746;9.232;2023-02-05T05:31:53;1.50;99.90
17849;DHT22;9050;48.746;9.232;2023-02-05T05:34:20;1.60;99.90
17849;DHT22;9050;48.746;9.232;2023-02-05T05:36:47;1.60;99.90
17849;DHT22;9050;48.746;9.232;2023-02-05T05:39:14;1.70;99.90
17849;DHT22;9050;48.746;9.232;2023-02-05T05:41:59;1.70;99.90
17849;DHT22;9050;48.746;9.232;2023-02-05T05:44:44;1.80;99.90
17849;DHT22;9050;48.746;9.232;2023-02-05T05:47:14;1.70;99.90
17849;DHT22;9050;48.746;9.232;2023-02-05T05:49:41;1.70;99.90
17849;DHT22;9050;48.746;9.232;2023-02-05T05:52:08;1.80;99.90
17849;DHT22;9050;48.746;9.232;2023-02-05T05:54:35;1.80;99.90
17849;DHT22;9050;48.746;9.232;2023-02-05T05:57:02;1.90;99.90
17849;DHT22;9050;48.746;9.232;2023-02-05T05:59:29;1.80;99.90
17849;DHT22;9050;48.746;9.232;2023-02-05T06:01:58;1.70;99.90
17849;DHT22;9050;48.746;9.232;2023-02-05T06:04:25;1.60;99.90
17849;DHT22;9050;48.746;9.232;2023-02-05T06:06:52;1.60;99.90
17849;DHT22;9050;48.746;9.232;2023-02-05T06:09:19;1.50;99.90
17849;DHT22;9050;48.746;9.232;2023-02-05T06:11:48;1.50;99.90
17849;DHT22;9050;48.746;9.232;2023-02-05T06:14:15;1.40;99.90
17849;DHT22;9050;48.746;9.232;2023-02-05T06:16:42;1.40;99.90
17849;DHT22;9050;48.746;9.232;2023-02-05T06:19:10;1.40;99.90
17849;DHT22;9050;48.746;9.232;2023-02-05T06:21:37;1.30;99.90
17849;DHT22;9050;48.746;9.232;2023-02-05T06:24:04;1.40;99.90
17849;DHT22;9050;48.746;9.232;2023-02-05T06:26:31;1.40;99.90
17849;DHT22;9050;48.746;9.232;2023-02-05T06:28:58;1.50;99.90
17849;DHT22;9050;48.746;9.232;2023-02-05T06:31:27;1.40;99.90
17849;DHT22;9050;48.746;9.232;2023-02-05T06:33:54;1.40;99.90
17849;DHT22;9050;48.746;9.232;2023-02-05T06:36:23;1.50;99.90
17849;DHT22;9050;48.746;9.232;2023-02-05T06:38:50;1.50;99.90
17849;DHT22;9050;48.746;9.232;2023-02-05T06:41:17;1.50;99.90
17849;DHT22;9050;48.746;9.232;2023-02-05T06:43:43;1.50;99.90
17849;DHT22;9050;48.746;9.232;2023-02-05T06:46:10;1.50;99.90
17849;DHT22;9050;48.746;9.232;2023-02-05T06:48:37;1.60;99.90
17849;DHT22;9050;48.746;9.232;2023-02-05T06:51:04;1.60;99.90
17849;DHT22;9050;48.746;9.232;2023-02-05T06:53:32;1.60;99.90
17849;DHT22;9050;48.746;9.232;2023-02-05T06:55:59;1.70;99.90
17849;DHT22;9050;48.746;9.232;2023-02-05T06:58:26;1.70;99.90
17849;DHT22;9050;48.746;9.232;2023-02-05T07:00:53;1.70;99.90
17849;DHT22;9050;48.746;9.232;2023-02-05T07:03:20;1.80;99.90
17849;DHT22;9050;48.746;9.232;2023-02-05T07:05:46;1.80;99.90
17849;DHT22;9050;48.746;9.232;2023-02-05T07:08:13;1.80;99.90
17849;DHT22;9050;48.746;9.232;2023-02-05T07:10:42;1.90;99.90
17849;DHT22;9050;48.746;9.232;2023-02-05T07:13:08;2.00;99.90
17849;DHT22;9050;48.746;9.232;2023-02-05T07:15:35;2.10;99.90
17849;DHT22;9050;48.746;9.232;2023-02-05T07:18:02;2.10;99.90
17849;DHT22;9050;48.746;9.232;2023-02-05T07:20:30;2.20;99.90
17849;DHT22;9050;48.746;9.232;2023-02-05T07:22:57;2.20;99.90
17849;DHT22;9050;48.746;9.232;2023-02-05T07:25:26;2.20;99.90
17849;DHT22;9050;48.746;9.232;2023-02-05T07:27:55;2.20;99.90
17849;DHT22;9050;48.746;9.232;2023-02-05T07:30:21;2.20;99.90
17849;DHT22;9050;48.746;9.232;2023-02-05T07:32:48;2.20;99.90
17849;DHT22;9050;48.746;9.232;2023-02-05T07:35:15;2.20;99.90
17849;DHT22;9050;48.746;9.232;2023-02-05T07:37:42;2.30;99.90
17849;DHT22;9050;48.746;9.232;2023-02-05T07:40:09;2.30;99.90
17849;DHT22;9050;48.746;9.232;2023-02-05T07:42:36;2.30;99.90
17849;DHT22;9050;48.746;9.232;2023-02-05T07:45:05;2.30;99.90
17849;DHT22;9050;48.746;9.232;2023-02-05T07:47:33;2.30;99.90
17849;DHT22;9050;48.746;9.232;2023-02-05T07:49:59;2.40;99.90
17849;DHT22;9050;48.746;9.232;2023-02-05T07:52:26;2.40;99.90
17849;DHT22;9050;48.746;9.232;2023-02-05T07:54:53;2.30;99.90
17849;DHT22;9050;48.746;9.232;2023-02-05T07:57:20;2.40;99.90
17849;DHT22;9050;48.746;9.232;2023-02-05T07:59:48;2.40;99.90
17849;DHT22;9050;48.746;9.232;2023-02-05T08:02:18;2.40;99.90
17849;DHT22;9050;48.746;9.232;2023-02-05T08:04:45;2.40;99.90
17849;DHT22;9050;48.746;9.232;2023-02-05T08:07:12;2.40;99.90
17849;DHT22;9050;48.746;9.232;2023-02-05T08:09:39;2.50;99.90
17849;DHT22;9050;48.746;9.232;2023-02-05T08:12:06;2.50;99.90
17849;DHT22;9050;48.746;9.232;2023-02-05T08:14:34;2.50;99.90
17849;DHT22;9050;48.746;9.232;2023-02-05T08:17:01;2.50;99.90
17849;DHT22;9050;48.746;9.232;2023-02-05T08:19:29;2.50;99.90
17849;DHT22;9050;48.746;9.232;2023-02-05T08:21:56;2.50;99.90
17849;DHT22;9050;48.746;9.232;2023-02-05T08:24:22;2.60;99.90
17849;DHT22;9050;48.746;9.232;2023-02-05T08:26:49;2.60;99.90
17849;DHT22;9050;48.746;9.232;2023-02-05T08:29:16;2.70;99.90
17849;DHT22;9050;48.746;9.232;2023-02-05T08:31:43;2.70;99.90
17849;DHT22;9050;48.746;9.232;2023-02-05T08:34:10;2.80;99.90
17849;DHT22;9050;48.746;9.232;2023-02-05T08:36:38;2.60;99.90
17849;DHT22;9050;48.746;9.232;2023-02-05T08:39:05;2.60;99.90
17849;DHT22;9050;48.746;9.232;2023-02-05T08:41:32;2.60;99.90
17849;DHT22;9050;48.746;9.232;2023-02-05T08:43:59;2.60;99.90
17849;DHT22;9050;48.746;9.232;2023-02-05T08:46:25;2.60;99.90
17849;DHT22;9050;48.746;9.232;2023-02-05T08:48:52;2.60;99.90
17849;DHT22;9050;48.746;9.232;2023-02-05T08:51:20;2.80;99.90
17849;DHT22;9050;48.746;9.232;2023-02-05T08:53:49;2.90;99.90
17849;DHT22;9050;48.746;9.232;2023-02-05T08:56:17;3.10;99.90
17849;DHT22;9050;48.746;9.232;2023-02-05T08:58:44;3.30;99.90
17849;DHT22;9050;48.746;9.232;2023-02-05T09:01:13;3.20;99.90
17849;DHT22;9050;48.746;9.232;2023-02-05T09:03:40;3.10;99.90
17849;DHT22;9050;48.746;9.232;2023-02-05T09:06:09;3.00;99.90
17849;DHT22;9050;48.746;9.232;2023-02-05T09:08:37;3.00;99.90
17849;DHT22;9050;48.746;9.232;2023-02-05T09:11:06;2.80;99.90
17849;DHT22;9050;48.746;9.232;2023-02-05T09:13:33;2.70;99.90
17849;DHT22;9050;48.746;9.232;2023-02-05T09:16:00;2.70;99.90
17849;DHT22;9050;48.746;9.232;2023-02-05T09:18:26;2.70;99.90
17849;DHT22;9050;48.746;9.232;2023-02-05T09:20:53;3.00;99.90
17849;DHT22;9050;48.746;9.232;2023-02-05T09:23:21;3.10;99.90
17849;DHT22;9050;48.746;9.232;2023-02-05T09:25:48;3.10;99.90
17849;DHT22;9050;48.746;9.232;2023-02-05T09:28:16;3.00;99.90
17849;DHT22;9050;48.746;9.232;2023-02-05T09:30:44;3.00;99.90
17849;DHT22;9050;48.746;9.232;2023-02-05T09:33:11;3.00;99.90
17849;DHT22;9050;48.746;9.232;2023-02-05T09:35:39;3.10;99.90
17849;DHT22;9050;48.746;9.232;2023-02-05T09:38:06;3.10;99.90
17849;DHT22;9050;48.746;9.232;2023-02-05T09:40:37;3.00;99.90
17849;DHT22;9050;48.746;9.232;2023-02-05T09:43:13;3.00;99.90
17849;DHT22;9050;48.746;9.232;2023-02-05T09:45:54;2.90;99.90
17849;DHT22;9050;48.746;9.232;2023-02-05T09:48:45;2.90;99.90
17849;DHT22;9050;48.746;9.232;2023-02-05T09:51:17;2.90;99.90
17849;DHT22;9050;48.746;9.232;2023-02-05T09:53:47;2.90;99.90
17849;DHT22;9050;48.746;9.232;2023-02-05T09:56:16;2.90;99.90
17849;DHT22;9050;48.746;9.232;2023-02-05T09:58:45;2.90;99.90
17849;DHT22;9050;48.746;9.232;2023-02-05T10:01:20;2.80;99.90
17849;DHT22;9050;48.746;9.232;2023-02-05T10:03:53;2.90;99.90
17849;DHT22;9050;48.746;9.232;2023-02-05T10:06:52;2.90;99.90
17849;DHT22;9050;48.746;9.232;2023-02-05T10:09:44;2.80;99.90
17849;DHT22;9050;48.746;9.232;2023-02-05T10:12:25;2.80;99.90
17849;DHT22;9050;48.746;9.232;2023-02-05T10:15:03;2.80;99.90
17849;DHT22;9050;48.746;9.232;2023-02-05T10:17:43;2.80;99.90
17849;DHT22;9050;48.746;9.232;2023-02-05T10:20:23;2.80;99.90
17849;DHT22;9050;48.746;9.232;2023-02-05T10:23:05;2.80;99.90
17849;DHT22;9050;48.746;9.232;2023-02-05T10:25:49;2.80;99.90
17849;DHT22;9050;48.746;9.232;2023-02-05T10:28:31;2.90;99.90
17849;DHT22;9050;48.746;9.232;2023-02-05T10:31:07;3.00;99.90
17849;DHT22;9050;48.746;9.232;2023-02-05T10:33:45;3.00;99.90
17849;DHT22;9050;48.746;9.232;2023-02-05T10:36:14;3.00;99.90
17849;DHT22;9050;48.746;9.232;2023-02-05T10:38:43;3.10;99.90
17849;DHT22;9050;48.746;9.232;2023-02-05T10:41:18;3.10;99.90
17849;DHT22;9050;48.746;9.232;2023-02-05T10:43:48;3.20;99.90
17849;DHT22;9050;48.746;9.232;2023-02-05T10:46:18;3.30;99.90
17849;DHT22;9050;48.746;9.232;2023-02-05T10:48:49;3.40;99.90
17849;DHT22;9050;48.746;9.232;2023-02-05T10:51:23;3.40;99.90
17849;DHT22;9050;48.746;9.232;2023-02-05T10:53:53;3.40;99.90
17849;DHT22;9050;48.746;9.232;2023-02-05T10:56:20;3.50;99.90
17849;DHT22;9050;48.746;9.232;2023-02-05T10:58:51;3.50;99.90
17849;DHT22;9050;48.746;9.232;2023-02-05T11:01:21;3.60;99.90
17849;DHT22;9050;48.746;9.232;2023-02-05T11:03:55;3.80;99.90
17849;DHT22;9050;48.746;9.232;2023-02-05T11:06:25;3.90;99.90
17849;DHT22;9050;48.746;9.232;2023-02-05T11:08:53;3.90;99.90
17849;DHT22;9050;48.746;9.232;2023-02-05T11:11:22;3.80;99.90
17849;DHT22;9050;48.746;9.232;2023-02-05T11:13:53;3.70;99.90
17849;DHT22;9050;48.746;9.232;2023-02-05T11:16:21;3.70;99.90
17849;DHT22;9050;48.746;9.232;2023-02-05T11:19:07;3.80;99.90
17849;DHT22;9050;48.746;9.232;2023-02-05T11:21:49;3.80;99.90
17849;DHT22;9050;48.746;9.232;2023-02-05T11:24:30;3.90;99.90
17849;DHT22;9050;48.746;9.232;2023-02-05T11:27:18;3.80;99.90
17849;DHT22;9050;48.746;9.232;2023-02-05T11:29:47;3.90;99.90
17849;DHT22;9050;48.746;9.232;2023-02-05T11:32:18;4.20;99.90
17849;DHT22;9050;48.746;9.232;2023-02-05T11:34:47;4.20;99.90
17849;DHT22;9050;48.746;9.232;2023-02-05T11:37:20;4.30;99.90
17849;DHT22;9050;48.746;9.232;2023-02-05T11:39:50;4.30;99.90
17849;DHT22;9050;48.746;9.232;2023-02-05T11:42:21;4.30;99.90
17849;DHT22;9050;48.746;9.232;2023-02-05T11:44:54;4.40;99.90
17849;DHT22;9050;48.746;9.232;2023-02-05T11:47:24;4.40;99.90
17849;DHT22;9050;48.746;9.232;2023-02-05T11:49:57;4.70;99.90
17849;DHT22;9050;48.746;9.232;2023-02-05T11:52:27;4.70;99.90
17849;DHT22;9050;48.746;9.232;2023-02-05T11:54:54;4.60;99.90
17849;DHT22;9050;48.746;9.232;2023-02-05T11:57:33;4.50;99.90
17849;DHT22;9050;48.746;9.232;2023-02-05T12:00:13;4.60;99.90
17849;DHT22;9050;48.746;9.232;2023-02-05T12:02:43;4.70;99.90
17849;DHT22;9050;48.746;9.232;2023-02-05T12:05:19;4.60;99.90
17849;DHT22;9050;48.746;9.232;2023-02-05T12:07:50;4.80;99.90
17849;DHT22;9050;48.746;9.232;2023-02-05T12:10:19;4.70;99.90
17849;DHT22;9050;48.746;9.232;2023-02-05T12:13:00;4.90;99.90
17849;DHT22;9050;48.746;9.232;2023-02-05T12:15:31;5.00;99.90
17849;DHT22;9050;48.746;9.232;2023-02-05T12:18:08;5.10;99.90
17849;DHT22;9050;48.746;9.232;2023-02-05T12:20:47;5.10;99.90
17849;DHT22;9050;48.746;9.232;2023-02-05T12:23:48;5.00;99.90
17849;DHT22;9050;48.746;9.232;2023-02-05T12:26:30;5.20;99.90
17849;DHT22;9050;48.746;9.232;2023-02-05T12:29:24;4.90;99.90
17849;DHT22;9050;48.746;9.232;2023-02-05T12:32:00;4.80;99.90
17849;DHT22;9050;48.746;9.232;2023-02-05T12:34:37;4.70;99.90
17849;DHT22;9050;48.746;9.232;2023-02-05T12:37:22;4.80;99.90
17849;DHT22;9050;48.746;9.232;2023-02-05T12:39:53;4.90;99.90
17849;DHT22;9050;48.746;9.232;2023-02-05T12:42:30;4.80;99.90
17849;DHT22;9050;48.746;9.232;2023-02-05T12:45:14;4.90;99.90
17849;DHT22;9050;48.746;9.232;2023-02-05T12:48:04;5.00;99.90
17849;DHT22;9050;48.746;9.232;2023-02-05T12:50:48;4.80;99.90
17849;DHT22;9050;48.746;9.232;2023-02-05T12:53:42;4.80;99.90
17849;DHT22;9050;48.746;9.232;2023-02-05T12:56:35;4.50;99.90
17849;DHT22;9050;48.746;9.232;2023-02-05T12:59:11;4.30;99.90
17849;DHT22;9050;48.746;9.232;2023-02-05T13:01:44;4.20;99.90
17849;DHT22;9050;48.746;9.232;2023-02-05T13:04:19;4.20;99.90
17849;DHT22;9050;48.746;9.232;2023-02-05T13:06:52;4.20;99.90
17849;DHT22;9050;48.746;9.232;2023-02-05T13:09:26;4.10;99.90
17849;DHT22;9050;48.746;9.232;2023-02-05T13:11:57;4.00;99.90
17849;DHT22;9050;48.746;9.232;2023-02-05T13:14:28;4.00;99.90
17849;DHT22;9050;48.746;9.232;2023-02-05T13:17:00;3.90;99.90
17849;DHT22;9050;48.746;9.232;2023-02-05T13:19:31;3.90;99.90
17849;DHT22;9050;48.746;9.232;2023-02-05T13:22:03;4.00;99.90
17849;DHT22;9050;48.746;9.232;2023-02-05T13:24:52;3.90;99.90
17849;DHT22;9050;48.746;9.232;2023-02-05T13:27:41;3.90;99.90
17849;DHT22;9050;48.746;9.232;2023-02-05T13:30:30;3.70;99.90
17849;DHT22;9050;48.746;9.232;2023-02-05T13:33:00;3.60;99.90
17849;DHT22;9050;48.746;9.232;2023-02-05T13:35:32;3.70;99.90
17849;DHT22;9050;48.746;9.232;2023-02-05T13:38:20;3.60;99.90
17849;DHT22;9050;48.746;9.232;2023-02-05T13:41:16;3.70;99.90
17849;DHT22;9050;48.746;9.232;2023-02-05T13:44:06;3.70;99.90
17849;DHT22;9050;48.746;9.232;2023-02-05T13:52:59;3.70;99.90
17849;DHT22;9050;48.746;9.232;2023-02-05T13:58:47;3.50;99.90
17849;DHT22;9050;48.746;9.232;2023-02-05T14:01:20;3.50;99.90
17849;DHT22;9050;48.746;9.232;2023-02-05T14:03:55;3.50;99.90
17849;DHT22;9050;48.746;9.232;2023-02-05T14:06:27;3.30;99.90
17849;DHT22;9050;48.746;9.232;2023-02-05T14:09:01;3.10;99.90
17849;DHT22;9050;48.746;9.232;2023-02-05T14:11:43;3.20;99.90
17849;DHT22;9050;48.746;9.232;2023-02-05T14:14:26;3.20;99.90
17849;DHT22;9050;48.746;9.232;2023-02-05T14:16:54;3.10;99.90
17849;DHT22;9050;48.746;9.232;2023-02-05T14:19:23;3.10;99.90
17849;DHT22;9050;48.746;9.232;2023-02-05T14:22:00;3.10;99.90
17849;DHT22;9050;48.746;9.232;2023-02-05T14:24:38;3.00;99.90
17849;DHT22;9050;48.746;9.232;2023-02-05T14:33:28;3.00;99.90
17849;DHT22;9050;48.746;9.232;2023-02-05T14:35:55;2.90;99.90
17849;DHT22;9050;48.746;9.232;2023-02-05T14:38:30;2.80;99.90
17849;DHT22;9050;48.746;9.232;2023-02-05T14:41:05;2.80;99.90
17849;DHT22;9050;48.746;9.232;2023-02-05T14:43:35;2.80;99.90
17849;DHT22;9050;48.746;9.232;2023-02-05T14:46:06;2.70;99.90
17849;DHT22;9050;48.746;9.232;2023-02-05T14:48:47;2.70;99.90
17849;DHT22;9050;48.746;9.232;2023-02-05T14:51:19;2.60;99.90
17849;DHT22;9050;48.746;9.232;2023-02-05T14:53:54;2.60;99.90
17849;DHT22;9050;48.746;9.232;2023-02-05T14:56:24;2.50;99.90
17849;DHT22;9050;48.746;9.232;2023-02-05T14:58:58;2.50;99.90
17849;DHT22;9050;48.746;9.232;2023-02-05T15:01:43;2.40;99.90
17849;DHT22;9050;48.746;9.232;2023-02-05T15:04:37;2.40;99.90
17849;DHT22;9050;48.746;9.232;2023-02-05T15:07:10;2.50;99.90
17849;DHT22;9050;48.746;9.232;2023-02-05T15:09:42;2.30;99.90
17849;DHT22;9050;48.746;9.232;2023-02-05T15:12:47;2.30;99.90
17849;DHT22;9050;48.746;9.232;2023-02-05T15:15:25;2.20;99.90
17849;DHT22;9050;48.746;9.232;2023-02-05T15:17:58;2.20;99.90
17849;DHT22;9050;48.746;9.232;2023-02-05T15:20:30;2.30;99.90
17849;DHT22;9050;48.746;9.232;2023-02-05T15:23:05;2.20;99.90
17849;DHT22;9050;48.746;9.232;2023-02-05T15:25:38;2.20;99.90
17849;DHT22;9050;48.746;9.232;2023-02-05T15:28:13;2.30;99.90
17849;DHT22;9050;48.746;9.232;2023-02-05T15:30:50;2.20;99.90
17849;DHT22;9050;48.746;9.232;2023-02-05T15:33:33;2.30;99.90
17849;DHT22;9050;48.746;9.232;2023-02-05T15:36:12;2.20;99.90
17849;DHT22;9050;48.746;9.232;2023-02-05T15:38:47;2.20;99.90
17849;DHT22;9050;48.746;9.232;2023-02-05T15:41:14;2.20;99.90
17849;DHT22;9050;48.746;9.232;2023-02-05T15:43:56;2.10;99.90
17849;DHT22;9050;48.746;9.232;2023-02-05T15:46:23;2.10;99.90
17849;DHT22;9050;48.746;9.232;2023-02-05T15:48:50;2.20;99.90
17849;DHT22;9050;48.746;9.232;2023-02-05T15:51:26;2.20;99.90
17849;DHT22;9050;48.746;9.232;2023-02-05T15:53:59;2.20;99.90
17849;DHT22;9050;48.746;9.232;2023-02-05T15:56:29;2.20;99.90
17849;DHT22;9050;48.746;9.232;2023-02-05T15:59:02;2.20;99.90
17849;DHT22;9050;48.746;9.232;2023-02-05T16:01:32;2.20;99.90
17849;DHT22;9050;48.746;9.232;2023-02-05T16:04:00;2.20;99.90
17849;DHT22;9050;48.746;9.232;2023-02-05T16:06:29;2.20;99.90
17849;DHT22;9050;48.746;9.232;2023-02-05T16:08:56;2.10;99.90
17849;DHT22;9050;48.746;9.232;2023-02-05T16:11:31;2.20;99.90
17849;DHT22;9050;48.746;9.232;2023-02-05T16:14:02;2.20;99.90
17849;DHT22;9050;48.746;9.232;2023-02-05T16:16:29;2.20;99.90
17849;DHT22;9050;48.746;9.232;2023-02-05T16:19:00;2.20;99.90
17849;DHT22;9050;48.746;9.232;2023-02-05T16:21:32;2.20;99.90
17849;DHT22;9050;48.746;9.232;2023-02-05T16:24:03;2.10;99.90
17849;DHT22;9050;48.746;9.232;2023-02-05T16:26:35;2.10;99.90
17849;DHT22;9050;48.746;9.232;2023-02-05T16:29:05;2.10;99.90
17849;DHT22;9050;48.746;9.232;2023-02-05T16:31:33;2.10;99.90
17849;DHT22;9050;48.746;9.232;2023-02-05T16:34:04;2.10;99.90
17849;DHT22;9050;48.746;9.232;2023-02-05T16:36:37;2.10;99.90
17849;DHT22;9050;48.746;9.232;2023-02-05T16:39:07;2.00;99.90
17849;DHT22;9050;48.746;9.232;2023-02-05T16:41:43;2.10;99.90
17849;DHT22;9050;48.746;9.232;2023-02-05T16:44:26;2.10;99.90
17849;DHT22;9050;48.746;9.232;2023-02-05T16:47:11;2.10;99.90
17849;DHT22;9050;48.746;9.232;2023-02-05T16:49:39;2.10;99.90
17849;DHT22;9050;48.746;9.232;2023-02-05T16:52:29;2.10;99.90
17849;DHT22;9050;48.746;9.232;2023-02-05T16:54:57;2.10;99.90